Decoded Metar for LFOB (BEAUVAIS in FRANCE) (IATA:BVA) | Meteo·Mobile Aviation Weather
aviador You're here:

LFOB Decoded Metar

BEAUVAIS in FRANCE
Report Time2019-10-21 07:30:00
UTC Time2019-10-21 07:55:39
Flight Rules ifr IFR
Wind220° at 10 kt
W.Decomp.*RWY 22: 10.0 kt HW 0.2 kt RCW
RWY 30: 1.9 kt HW 9.8 kt LCW
Visibility9999 m
Phenomena:Drizzle
Clouds:Overcast 006 Hf
Expected CloudBase > 400 ft AGL from Temp-Dew spread
Ceiling600 ft
Temp11°C (ISA -3)
Dew Point10°C (94% RH)
AAT7.5°C
QNH1013 hPa
Density Alt141 ft
Elevation364 ft
Report Wrong Elevation
Raw Report
LFOB 210730Z AUTO 22010KT 9999 OVC006 11/10 Q1013 TEMPO 4000 DZ
OVC004=

Extra information for LFOB:More info

Metar Taf Metar & Taf Last 4 Metars F.Rules Stats Wind Profile Meteogram Temp Stats Airport Information Weather charts Add Link Nearby VenuesMetar ALERT Operation Metar Decoded Social comments